createdAt,value
2018-04-14T00:01:40.141Z,13.64
2018-04-14T00:04:08.285Z,13.62
2018-04-14T00:06:36.425Z,13.75
2018-04-14T00:09:04.549Z,13.75
2018-04-14T00:11:32.785Z,13.76
2018-04-14T00:14:00.925Z,13.53
2018-04-14T00:16:29.069Z,13.53
2018-04-14T00:18:57.216Z,13.51
2018-04-14T00:21:25.362Z,13.47
2018-04-14T00:23:53.494Z,13.46
2018-04-14T00:26:21.848Z,13.42
2018-04-14T00:28:49.983Z,13.41
2018-04-14T00:31:18.118Z,13.41
2018-04-14T00:33:46.272Z,13.48
2018-04-14T00:36:14.444Z,13.44
2018-04-14T00:38:42.606Z,13.43
2018-04-14T00:41:10.752Z,13.46
2018-04-14T00:43:38.896Z,13.41
2018-04-14T00:46:07.007Z,13.32
2018-04-14T00:48:35.130Z,13.34
2018-04-14T00:51:03.274Z,13.36
2018-04-14T00:53:43.280Z,13.41
2018-04-14T00:56:11.397Z,13.34
2018-04-14T00:58:39.552Z,13.35
2018-04-14T01:01:07.701Z,13.46
2018-04-14T01:03:35.854Z,13.51
2018-04-14T01:06:03.996Z,13.43
2018-04-14T01:08:32.381Z,13.41
2018-04-14T01:11:00.525Z,13.46
2018-04-14T01:13:28.639Z,13.53
2018-04-14T01:15:56.817Z,13.59
2018-04-14T01:18:24.931Z,13.62
2018-04-14T01:20:53.056Z,13.58
2018-04-14T01:23:21.218Z,13.58
2018-04-14T01:25:49.341Z,13.58
2018-04-14T01:28:17.463Z,13.62
2018-04-14T01:30:45.732Z,13.64
2018-04-14T01:33:13.847Z,13.61
2018-04-14T01:35:41.981Z,13.58
2018-04-14T01:38:10.146Z,13.53
2018-04-14T01:40:38.276Z,13.53
2018-04-14T01:43:06.437Z,13.59
2018-04-14T01:45:34.570Z,13.62
2018-04-14T01:48:02.803Z,13.63
2018-04-14T01:50:30.929Z,13.60
2018-04-14T01:52:59.081Z,13.63
2018-04-14T01:55:27.197Z,13.56
2018-04-14T01:57:55.338Z,13.59
2018-04-14T02:00:23.499Z,13.55
2018-04-14T02:02:51.622Z,13.56
2018-04-14T02:05:19.782Z,13.59
2018-04-14T02:07:47.908Z,13.64
2018-04-14T02:10:16.052Z,13.64
2018-04-14T02:12:44.178Z,13.66
2018-04-14T02:15:12.325Z,13.66
2018-04-14T02:17:40.614Z,13.53
2018-04-14T02:20:08.724Z,13.23
2018-04-14T02:22:36.888Z,13.32
2018-04-14T02:25:04.998Z,13.48
2018-04-14T02:27:33.138Z,13.54
2018-04-14T02:30:01.283Z,13.53
2018-04-14T02:32:29.424Z,13.53
2018-04-14T02:34:57.542Z,13.53
2018-04-14T02:37:25.682Z,13.56
2018-04-14T02:39:53.803Z,13.58
2018-04-14T02:42:25.696Z,13.59
2018-04-14T02:44:54.048Z,13.59
2018-04-14T02:47:22.223Z,13.58
2018-04-14T02:49:50.337Z,13.53
2018-04-14T02:52:18.506Z,13.45
2018-04-14T02:54:46.633Z,13.48
2018-04-14T02:57:14.782Z,13.51
2018-04-14T02:59:42.930Z,13.52
2018-04-14T03:02:11.069Z,13.49
2018-04-14T03:04:39.202Z,13.47
2018-04-14T03:07:07.338Z,13.49
2018-04-14T03:09:35.458Z,13.50
2018-04-14T03:12:03.579Z,13.48
2018-04-14T03:14:31.729Z,13.39
2018-04-14T03:16:59.867Z,13.35
2018-04-14T03:19:28.001Z,13.36
2018-04-14T03:21:56.318Z,13.37
2018-04-14T03:24:24.439Z,13.39
2018-04-14T03:26:52.598Z,13.23
2018-04-14T03:29:20.751Z,13.23
2018-04-14T03:31:48.891Z,13.30
2018-04-14T03:34:17.031Z,13.38
2018-04-14T03:36:45.199Z,13.35
2018-04-14T03:39:13.306Z,13.40
2018-04-14T03:41:41.458Z,13.45
2018-04-14T03:44:09.594Z,13.43
2018-04-14T03:46:37.708Z,13.44
2018-04-14T03:49:05.859Z,13.42
2018-04-14T03:51:34.158Z,13.32
2018-04-14T03:54:02.276Z,13.35
2018-04-14T03:56:30.420Z,13.26
2018-04-14T03:58:58.583Z,13.38
2018-04-14T04:01:26.718Z,13.39
2018-04-14T04:03:54.860Z,13.34
2018-04-14T04:06:23.009Z,13.33
2018-04-14T04:08:51.158Z,13.34
2018-04-14T04:11:19.300Z,13.30
2018-04-14T04:13:47.653Z,13.12
2018-04-14T04:16:16.897Z,13.27
2018-04-14T04:18:57.016Z,13.43
2018-04-14T04:21:36.767Z,13.25
2018-04-14T04:24:16.973Z,13.37
2018-04-14T04:26:45.146Z,13.52
2018-04-14T04:29:13.351Z,13.57
2018-04-14T04:31:41.701Z,13.61
2018-04-14T04:34:09.860Z,13.59
2018-04-14T04:36:37.992Z,13.56
2018-04-14T04:39:06.126Z,13.59
2018-04-14T04:41:34.263Z,13.62
2018-04-14T04:44:02.416Z,13.44
2018-04-14T04:46:30.574Z,13.38
2018-04-14T04:48:58.740Z,13.44
2018-04-14T04:51:26.850Z,13.55
2018-04-14T04:53:54.986Z,13.51
2018-04-14T04:56:23.110Z,13.53
2018-04-14T04:58:51.253Z,13.45
2018-04-14T05:01:19.407Z,13.47
2018-04-14T05:03:47.545Z,13.53
2018-04-14T05:06:15.677Z,13.54
2018-04-14T05:08:43.833Z,13.59
2018-04-14T05:11:11.965Z,13.60
2018-04-14T05:13:40.091Z,13.62
2018-04-14T05:16:08.250Z,13.59
2018-04-14T05:18:36.377Z,13.58
2018-04-14T05:21:04.492Z,13.58
2018-04-14T05:23:32.702Z,13.55
2018-04-14T05:26:00.852Z,13.53
2018-04-14T05:28:28.974Z,13.52
2018-04-14T05:30:57.141Z,13.56
2018-04-14T05:33:25.284Z,13.34
2018-04-14T05:35:53.411Z,13.45
2018-04-14T05:38:21.556Z,13.40
2018-04-14T05:40:49.690Z,13.16
2018-04-14T05:43:21.541Z,13.30
2018-04-14T05:45:49.704Z,13.43
2018-04-14T05:48:17.868Z,13.55
2018-04-14T05:50:45.981Z,13.65
2018-04-14T05:53:14.128Z,13.68
2018-04-14T05:55:42.258Z,13.64
2018-04-14T05:58:10.414Z,13.59
2018-04-14T06:00:38.570Z,13.68
2018-04-14T06:03:06.708Z,13.80
2018-04-14T06:05:34.855Z,13.94
2018-04-14T06:08:03.004Z,13.95
2018-04-14T06:10:31.131Z,13.83
2018-04-14T06:12:59.250Z,13.60
2018-04-14T06:15:27.396Z,13.82
2018-04-14T06:17:55.516Z,14.02
2018-04-14T06:20:23.653Z,14.16
2018-04-14T06:22:51.813Z,14.27
2018-04-14T06:25:19.958Z,14.11
2018-04-14T06:27:48.065Z,14.00
2018-04-14T06:30:16.202Z,14.11
2018-04-14T06:32:44.354Z,14.16
2018-04-14T06:35:12.532Z,14.18
2018-04-14T06:37:40.713Z,14.06
2018-04-14T06:40:08.865Z,13.97
2018-04-14T06:42:37.016Z,13.95
2018-04-14T06:45:05.155Z,14.06
2018-04-14T06:47:33.336Z,14.05
2018-04-14T06:50:01.721Z,14.13
2018-04-14T06:52:29.876Z,14.12
2018-04-14T06:54:58.015Z,14.04
2018-04-14T06:57:26.153Z,14.07
2018-04-14T06:59:54.448Z,14.07
2018-04-14T07:02:26.352Z,14.09
2018-04-14T07:04:54.487Z,14.17
2018-04-14T07:07:22.619Z,14.09
2018-04-14T07:09:50.776Z,13.98
2018-04-14T07:12:18.885Z,13.83
2018-04-14T07:14:47.041Z,13.81
2018-04-14T07:17:15.171Z,13.86
2018-04-14T07:19:43.298Z,13.84
2018-04-14T07:22:11.427Z,13.72
2018-04-14T07:24:39.647Z,13.95
2018-04-14T07:27:07.789Z,14.17
2018-04-14T07:29:35.923Z,14.17
2018-04-14T07:32:04.060Z,14.15
2018-04-14T07:34:32.195Z,14.21
2018-04-14T07:37:00.324Z,14.09
2018-04-14T07:39:28.451Z,14.19
2018-04-14T07:41:56.566Z,14.37
2018-04-14T07:44:24.711Z,14.44
2018-04-14T07:46:52.835Z,14.56
2018-04-14T07:49:20.973Z,14.75
2018-04-14T07:51:49.103Z,14.80
2018-04-14T07:54:17.251Z,14.79
2018-04-14T07:56:45.362Z,14.88
2018-04-14T07:59:13.524Z,14.96
2018-04-14T08:01:41.776Z,14.58
2018-04-14T08:04:09.994Z,14.50
2018-04-14T08:06:38.124Z,14.66
2018-04-14T08:09:10.088Z,14.84
2018-04-14T08:11:38.276Z,14.92
2018-04-14T08:14:09.833Z,14.74
2018-04-14T08:16:37.954Z,14.65
2018-04-14T08:19:06.091Z,14.75
2018-04-14T08:21:34.238Z,14.98
2018-04-14T08:24:02.370Z,15.23
2018-04-14T08:26:30.515Z,15.52
2018-04-14T08:28:58.669Z,15.67
2018-04-14T08:31:26.816Z,15.99
2018-04-14T08:33:54.959Z,16.32
2018-04-14T08:36:23.408Z,15.97
2018-04-14T08:38:52.467Z,15.47
2018-04-14T08:41:20.958Z,15.35
2018-04-14T08:43:49.100Z,15.33
2018-04-14T08:46:17.229Z,15.54
2018-04-14T08:48:45.388Z,15.83
2018-04-14T08:51:13.526Z,15.68
2018-04-14T08:53:41.659Z,15.86
2018-04-14T08:56:09.786Z,15.61
2018-04-14T08:58:37.943Z,15.78
2018-04-14T09:01:06.067Z,15.65
2018-04-14T09:03:34.216Z,15.61
2018-04-14T09:06:02.367Z,15.73
2018-04-14T09:08:30.499Z,15.55
2018-04-14T09:10:58.927Z,15.29
2018-04-14T09:13:27.068Z,14.98
2018-04-14T09:15:55.194Z,14.84
2018-04-14T09:18:23.330Z,15.12
2018-04-14T09:20:51.503Z,15.35
2018-04-14T09:23:19.638Z,15.66
2018-04-14T09:25:47.780Z,15.46
2018-04-14T09:28:15.921Z,15.47
2018-04-14T09:30:44.041Z,15.71
2018-04-14T09:33:12.193Z,15.99
2018-04-14T09:35:40.584Z,15.85
2018-04-14T09:38:10.631Z,15.85
2018-04-14T09:40:38.751Z,15.71
2018-04-14T09:43:06.932Z,15.89
2018-04-14T09:45:35.048Z,15.91
2018-04-14T09:48:03.180Z,15.96
2018-04-14T09:50:31.333Z,15.92
2018-04-14T09:52:59.478Z,15.88
2018-04-14T09:55:27.615Z,15.95
2018-04-14T09:57:55.776Z,15.92
2018-04-14T10:00:27.790Z,15.91
2018-04-14T10:03:00.819Z,15.93
2018-04-14T10:05:28.900Z,15.91
2018-04-14T10:07:57.909Z,15.91
2018-04-14T10:10:26.090Z,16.03
2018-04-14T10:12:54.214Z,16.49
2018-04-14T10:15:22.320Z,16.60
2018-04-14T10:17:50.516Z,16.27
2018-04-14T10:20:18.665Z,16.24
2018-04-14T10:22:46.794Z,16.13
2018-04-14T10:25:14.933Z,16.62
2018-04-14T10:27:43.066Z,17.01
2018-04-14T10:30:11.208Z,17.12
2018-04-14T10:32:39.349Z,17.50
2018-04-14T10:35:07.463Z,17.46
2018-04-14T10:37:35.625Z,17.51
2018-04-14T10:40:03.770Z,17.85
2018-04-14T10:42:31.914Z,18.03
2018-04-14T10:45:00.115Z,18.10
2018-04-14T10:47:28.246Z,17.82
2018-04-14T10:49:56.392Z,18.09
2018-04-14T10:52:24.511Z,17.51
2018-04-14T10:54:52.741Z,17.52
2018-04-14T10:57:20.884Z,17.50
2018-04-14T10:59:48.996Z,17.46
2018-04-14T11:02:17.139Z,16.88
2018-04-14T11:04:45.257Z,17.08
2018-04-14T11:07:13.387Z,17.16
2018-04-14T11:09:41.752Z,17.18
2018-04-14T11:12:09.901Z,17.19
2018-04-14T11:14:38.073Z,17.43
2018-04-14T11:17:06.357Z,17.75
2018-04-14T11:19:34.495Z,17.86
2018-04-14T11:22:02.638Z,17.81
2018-04-14T11:24:30.908Z,18.18
2018-04-14T11:26:59.055Z,18.45
2018-04-14T11:29:27.190Z,18.46
2018-04-14T11:31:55.350Z,18.38
2018-04-14T11:34:23.521Z,18.05
2018-04-14T11:36:51.646Z,18.17
2018-04-14T11:39:19.792Z,18.27
2018-04-14T11:41:47.942Z,18.51
2018-04-14T11:44:16.086Z,18.69
2018-04-14T11:46:44.246Z,18.91
2018-04-14T11:49:12.404Z,18.86
2018-04-14T11:51:40.511Z,18.99
2018-04-14T11:54:08.665Z,18.83
2018-04-14T11:56:36.821Z,18.58
2018-04-14T11:59:04.963Z,18.69
2018-04-14T12:01:33.117Z,18.63
2018-04-14T12:04:01.280Z,18.63
2018-04-14T12:06:29.428Z,19.20
2018-04-14T12:08:57.826Z,19.11
2018-04-14T12:11:26.048Z,18.87
2018-04-14T12:13:54.184Z,19.04
2018-04-14T12:16:22.360Z,19.36
2018-04-14T12:18:50.492Z,19.54
2018-04-14T12:21:18.637Z,19.53
2018-04-14T12:23:46.784Z,19.62
2018-04-14T12:26:14.914Z,19.74
2018-04-14T12:28:43.035Z,19.63
2018-04-14T12:31:11.198Z,19.31
2018-04-14T12:33:39.329Z,19.43
2018-04-14T12:36:07.473Z,19.31
2018-04-14T12:38:35.606Z,18.80
2018-04-14T12:41:03.764Z,18.52
2018-04-14T12:43:31.911Z,18.81
2018-04-14T12:46:00.050Z,19.03
2018-04-14T12:48:28.192Z,19.56
2018-04-14T12:50:56.327Z,19.78
2018-04-14T12:53:24.471Z,20.00
2018-04-14T12:55:52.611Z,19.78
2018-04-14T12:58:20.754Z,19.76
2018-04-14T13:00:49.101Z,19.75
2018-04-14T13:03:17.229Z,19.77
2018-04-14T13:05:45.363Z,19.88
2018-04-14T13:08:16.849Z,20.15
2018-04-14T13:10:45.014Z,19.99
2018-04-14T13:13:13.164Z,19.63
2018-04-14T13:15:41.271Z,19.54
2018-04-14T13:18:09.406Z,19.60
2018-04-14T13:20:37.528Z,19.60
2018-04-14T13:23:05.683Z,19.64
2018-04-14T13:25:33.844Z,19.76
2018-04-14T13:28:01.973Z,19.93
2018-04-14T13:30:30.111Z,19.78
2018-04-14T13:32:58.255Z,19.77
2018-04-14T13:35:26.382Z,19.55
2018-04-14T13:37:54.524Z,19.42
2018-04-14T13:40:22.671Z,19.23
2018-04-14T13:42:50.793Z,18.83
2018-04-14T13:45:18.939Z,18.93
2018-04-14T13:47:47.149Z,19.44
2018-04-14T13:50:15.280Z,19.41
2018-04-14T13:52:43.436Z,19.55
2018-04-14T13:55:11.599Z,19.75
2018-04-14T13:57:39.713Z,19.70
2018-04-14T14:00:07.989Z,19.61
2018-04-14T14:02:36.134Z,19.42
2018-04-14T14:05:04.260Z,19.32
2018-04-14T14:07:32.684Z,19.34
2018-04-14T14:10:00.824Z,19.30
2018-04-14T14:12:28.955Z,19.45
2018-04-14T14:15:02.397Z,19.54
2018-04-14T14:17:31.124Z,19.45
2018-04-14T14:19:59.360Z,19.48
2018-04-14T14:22:27.555Z,19.44
2018-04-14T14:24:55.767Z,19.57
2018-04-14T14:27:23.920Z,19.48
2018-04-14T14:29:52.041Z,19.44
2018-04-14T14:32:20.200Z,19.48
2018-04-14T14:34:48.325Z,19.74
2018-04-14T14:37:16.458Z,19.71
2018-04-14T14:39:44.588Z,19.84
2018-04-14T14:42:12.716Z,19.87
2018-04-14T14:44:40.853Z,19.68
2018-04-14T14:47:09.004Z,19.34
2018-04-14T14:49:37.139Z,19.26
2018-04-14T14:52:05.270Z,19.33
2018-04-14T14:54:33.394Z,19.43
2018-04-14T14:57:01.536Z,19.47
2018-04-14T14:59:32.837Z,19.49
2018-04-14T15:02:00.963Z,19.59
2018-04-14T15:04:29.127Z,19.39
2018-04-14T15:06:57.250Z,19.32
2018-04-14T15:09:25.384Z,19.32
2018-04-14T15:11:53.776Z,19.27
2018-04-14T15:14:21.914Z,19.27
2018-04-14T15:16:50.058Z,19.28
2018-04-14T15:19:18.205Z,19.38
2018-04-14T15:21:46.333Z,19.40
2018-04-14T15:24:14.477Z,19.42
2018-04-14T15:26:42.808Z,19.31
2018-04-14T15:29:10.930Z,19.01
2018-04-14T15:31:39.071Z,19.10
2018-04-14T15:34:07.217Z,19.24
2018-04-14T15:36:35.360Z,19.35
2018-04-14T15:39:03.485Z,19.56
2018-04-14T15:41:31.651Z,19.60
2018-04-14T15:43:59.783Z,19.60
2018-04-14T15:46:27.927Z,19.52
2018-04-14T15:48:56.080Z,19.33
2018-04-14T15:51:24.214Z,19.42
2018-04-14T15:53:52.375Z,19.38
2018-04-14T15:56:20.528Z,19.24
2018-04-14T15:58:48.683Z,19.28
2018-04-14T16:01:16.835Z,19.42
2018-04-14T16:03:45.056Z,19.28
2018-04-14T16:06:13.117Z,19.24
2018-04-14T16:08:41.244Z,19.25
2018-04-14T16:11:09.390Z,19.17
2018-04-14T16:13:37.510Z,19.13
2018-04-14T16:16:05.660Z,19.12
2018-04-14T16:18:33.793Z,19.24
2018-04-14T16:21:01.943Z,19.41
2018-04-14T16:23:30.116Z,19.45
2018-04-14T16:25:58.240Z,19.34
2018-04-14T16:28:26.404Z,19.36
2018-04-14T16:30:54.544Z,19.13
2018-04-14T16:33:22.681Z,19.15
2018-04-14T16:35:50.842Z,19.15
2018-04-14T16:38:18.992Z,19.11
2018-04-14T16:40:47.142Z,19.24
2018-04-14T16:43:15.254Z,19.29
2018-04-14T16:45:43.373Z,19.28
2018-04-14T16:48:11.539Z,19.18
2018-04-14T16:50:39.765Z,19.09
2018-04-14T16:53:07.907Z,19.01
2018-04-14T16:55:36.069Z,19.06
2018-04-14T16:58:04.275Z,19.12
2018-04-14T17:00:33.003Z,19.17
2018-04-14T17:03:01.699Z,19.11
2018-04-14T17:05:30.575Z,19.05
2018-04-14T17:07:59.827Z,19.01
2018-04-14T17:10:28.766Z,19.07
2018-04-14T17:12:56.999Z,19.11
2018-04-14T17:15:25.127Z,19.09
2018-04-14T17:17:53.341Z,19.05
2018-04-14T17:20:21.493Z,18.94
2018-04-14T17:22:49.615Z,19.02
2018-04-14T17:25:18.232Z,18.97
2018-04-14T17:27:46.380Z,18.86
2018-04-14T17:30:14.523Z,18.88
2018-04-14T17:32:42.676Z,18.89
2018-04-14T17:35:10.824Z,18.79
2018-04-14T17:37:38.962Z,18.75
2018-04-14T17:40:07.138Z,18.72
2018-04-14T17:42:35.265Z,18.78
2018-04-14T17:45:03.515Z,18.68
2018-04-14T17:47:31.680Z,18.68
2018-04-14T17:50:00.052Z,18.59
2018-04-14T17:52:28.186Z,18.60
2018-04-14T17:54:56.315Z,18.62
2018-04-14T17:57:24.426Z,18.52
2018-04-14T17:59:52.556Z,18.46
2018-04-14T18:02:20.707Z,18.38
2018-04-14T18:04:48.849Z,18.41
2018-04-14T18:07:17.254Z,18.32
2018-04-14T18:09:45.416Z,18.42
2018-04-14T18:12:13.585Z,18.41
2018-04-14T18:14:41.699Z,18.39
2018-04-14T18:17:09.860Z,18.30
2018-04-14T18:19:38.016Z,18.31
2018-04-14T18:22:06.146Z,18.20
2018-04-14T18:24:34.285Z,18.14
2018-04-14T18:27:02.419Z,18.03
2018-04-14T18:29:30.560Z,18.05
2018-04-14T18:31:58.712Z,18.04
2018-04-14T18:34:26.827Z,18.05
2018-04-14T18:36:54.935Z,18.10
2018-04-14T18:39:23.101Z,18.11
2018-04-14T18:41:51.242Z,18.07
2018-04-14T18:44:19.354Z,18.03
2018-04-14T18:46:47.487Z,18.02
2018-04-14T18:49:15.640Z,18.00
2018-04-14T18:51:43.775Z,18.02
2018-04-14T18:54:11.913Z,17.96
2018-04-14T18:56:40.066Z,17.95
2018-04-14T18:59:08.195Z,17.93
2018-04-14T19:01:36.354Z,17.79
2018-04-14T19:04:04.512Z,17.80
2018-04-14T19:06:32.658Z,17.81
2018-04-14T19:09:00.818Z,17.90
2018-04-14T19:11:28.971Z,17.89
2018-04-14T19:13:57.066Z,17.67
2018-04-14T19:16:25.209Z,17.70
2018-04-14T19:18:56.997Z,17.64
2018-04-14T19:21:28.847Z,17.67
2018-04-14T19:23:56.987Z,17.72
2018-04-14T19:26:25.121Z,17.63
2018-04-14T19:28:53.253Z,17.68
2018-04-14T19:31:21.419Z,17.61
2018-04-14T19:33:49.565Z,17.57
2018-04-14T19:36:17.686Z,17.57
2018-04-14T19:38:48.825Z,17.53
2018-04-14T19:41:16.953Z,17.49
2018-04-14T19:43:45.091Z,17.53
2018-04-14T19:46:13.223Z,17.49
2018-04-14T19:48:41.388Z,17.42
2018-04-14T19:51:09.815Z,17.42
2018-04-14T19:53:37.951Z,17.46
2018-04-14T19:56:06.086Z,17.18
2018-04-14T19:58:34.230Z,17.10
2018-04-14T20:01:02.348Z,17.17
2018-04-14T20:03:30.489Z,17.23
2018-04-14T20:05:58.623Z,17.16
2018-04-14T20:08:26.749Z,17.05
2018-04-14T20:10:55.333Z,17.14
2018-04-14T20:13:23.509Z,17.18
2018-04-14T20:15:51.616Z,17.05
2018-04-14T20:18:19.753Z,16.98
2018-04-14T20:20:47.947Z,16.93
2018-04-14T20:23:16.042Z,16.82
2018-04-14T20:25:44.244Z,16.79
2018-04-14T20:28:13.292Z,16.80
2018-04-14T20:30:41.431Z,16.63
2018-04-14T20:33:09.554Z,16.79
2018-04-14T20:35:37.706Z,16.77
2018-04-14T20:38:05.837Z,16.76
2018-04-14T20:40:33.955Z,16.63
2018-04-14T20:43:02.120Z,16.73
2018-04-14T20:45:30.248Z,16.66
2018-04-14T20:47:58.392Z,16.71
2018-04-14T20:50:26.533Z,16.84
2018-04-14T20:52:58.525Z,16.58
2018-04-14T20:55:26.765Z,16.60
2018-04-14T20:57:54.899Z,16.66
2018-04-14T21:00:23.020Z,16.74
2018-04-14T21:02:51.180Z,16.85
2018-04-14T21:05:19.324Z,16.74
2018-04-14T21:07:47.446Z,16.53
2018-04-14T21:10:15.559Z,16.42
2018-04-14T21:12:43.718Z,16.59
2018-04-14T21:15:11.895Z,16.57
2018-04-14T21:17:40.036Z,16.37
2018-04-14T21:20:08.155Z,16.22
2018-04-14T21:22:36.303Z,16.28
2018-04-14T21:25:04.428Z,16.28
2018-04-14T21:27:32.573Z,16.35
2018-04-14T21:30:00.718Z,16.29
2018-04-14T21:32:28.839Z,16.24
2018-04-14T21:34:56.970Z,16.04
2018-04-14T21:37:25.119Z,15.94
2018-04-14T21:39:53.236Z,16.10
2018-04-14T21:42:21.383Z,16.29
2018-04-14T21:44:49.505Z,16.04
2018-04-14T21:47:17.650Z,16.11
2018-04-14T21:49:49.403Z,16.24
2018-04-14T21:52:17.637Z,16.13
2018-04-14T21:54:45.797Z,16.05
2018-04-14T21:57:14.042Z,16.08
2018-04-14T21:59:42.226Z,16.09
2018-04-14T22:02:10.372Z,15.98
2018-04-14T22:04:38.575Z,16.00
2018-04-14T22:07:06.777Z,16.13
2018-04-14T22:09:34.888Z,16.08
2018-04-14T22:12:03.015Z,16.00
2018-04-14T22:14:33.102Z,16.15
2018-04-14T22:17:01.230Z,15.87
2018-04-14T22:19:29.366Z,15.83
2018-04-14T22:21:57.501Z,15.98
2018-04-14T22:24:25.630Z,15.91
2018-04-14T22:26:53.784Z,15.96
2018-04-14T22:29:23.903Z,15.88
2018-04-14T22:31:52.086Z,15.82
2018-04-14T22:34:20.236Z,15.84
2018-04-14T22:36:48.424Z,15.83
2018-04-14T22:39:16.607Z,15.79
2018-04-14T22:41:44.843Z,15.70
2018-04-14T22:44:12.997Z,15.66
2018-04-14T22:46:41.164Z,15.73
2018-04-14T22:49:09.354Z,15.80
2018-04-14T22:51:37.571Z,15.81
2018-04-14T22:54:05.739Z,15.87
2018-04-14T22:56:33.865Z,15.74
2018-04-14T22:59:02.011Z,15.67
2018-04-14T23:01:30.146Z,15.62
2018-04-14T23:03:58.281Z,15.88
2018-04-14T23:06:26.500Z,15.64
2018-04-14T23:08:54.621Z,15.58
2018-04-14T23:11:22.762Z,15.83
2018-04-14T23:13:50.907Z,15.86
2018-04-14T23:16:19.052Z,15.78
2018-04-14T23:18:47.276Z,16.04
2018-04-14T23:21:15.399Z,15.45
2018-04-14T23:23:43.528Z,15.48
2018-04-14T23:26:11.669Z,15.61
2018-04-14T23:28:39.794Z,15.62
2018-04-14T23:31:07.931Z,15.79
2018-04-14T23:33:36.075Z,15.76
2018-04-14T23:36:04.197Z,15.81
2018-04-14T23:38:32.312Z,15.75
2018-04-14T23:41:00.477Z,15.68
2018-04-14T23:43:28.602Z,15.52
2018-04-14T23:45:56.733Z,15.48
2018-04-14T23:48:24.855Z,15.48
2018-04-14T23:50:52.993Z,15.33
2018-04-14T23:53:24.988Z,15.44
2018-04-14T23:55:53.123Z,15.38
2018-04-14T23:58:21.256Z,15.57
